createdAt,value
2022-09-29T00:01:39.935Z,1.27
2022-09-29T00:04:27.645Z,1.40
2022-09-29T00:07:15.048Z,1.00
2022-09-29T00:10:03.469Z,1.30
2022-09-29T00:12:51.084Z,1.07
2022-09-29T00:15:38.548Z,1.40
2022-09-29T00:18:26.424Z,1.07
2022-09-29T00:21:20.234Z,1.10
2022-09-29T00:24:07.850Z,1.10
2022-09-29T00:26:55.528Z,1.10
2022-09-29T00:29:42.899Z,1.40
2022-09-29T00:32:30.829Z,0.90
2022-09-29T00:35:18.698Z,1.00
2022-09-29T00:38:05.966Z,1.10
2022-09-29T00:40:53.442Z,1.00
2022-09-29T00:43:55.244Z,1.10
2022-09-29T00:47:03.263Z,1.00
2022-09-29T00:49:57.945Z,1.00
2022-09-29T00:52:48.350Z,1.00
2022-09-29T00:55:37.794Z,1.37
2022-09-29T00:58:29.750Z,1.57
2022-09-29T01:01:17.245Z,1.10
2022-09-29T01:04:06.455Z,1.30
2022-09-29T01:06:58.670Z,1.10
2022-09-29T01:09:47.264Z,1.17
2022-09-29T01:12:35.142Z,1.70
2022-09-29T01:15:23.104Z,1.37
2022-09-29T01:18:11.221Z,1.87
2022-09-29T01:21:06.096Z,1.50
2022-09-29T01:23:53.781Z,1.50
2022-09-29T01:26:51.347Z,1.27
2022-09-29T01:30:08.715Z,1.33
2022-09-29T01:33:07.768Z,1.20
2022-09-29T01:35:55.647Z,1.30
2022-09-29T01:38:56.138Z,1.57
2022-09-29T01:41:56.974Z,1.27
2022-09-29T01:44:47.559Z,1.43
2022-09-29T01:47:41.374Z,1.40
2022-09-29T01:50:32.184Z,1.40
2022-09-29T01:53:22.236Z,1.30
2022-09-29T01:56:15.162Z,1.47
2022-09-29T01:59:11.137Z,1.43
2022-09-29T02:02:01.264Z,1.27
2022-09-29T02:04:54.434Z,1.33
2022-09-29T02:07:45.323Z,1.23
2022-09-29T02:10:38.844Z,1.30
2022-09-29T02:13:26.328Z,1.13
2022-09-29T02:16:16.498Z,1.53
2022-09-29T02:19:08.483Z,1.20
2022-09-29T02:21:56.555Z,1.13
2022-09-29T02:24:44.542Z,1.50
2022-09-29T02:27:33.905Z,1.47
2022-09-29T02:30:21.303Z,1.37
2022-09-29T02:33:19.135Z,1.10
2022-09-29T02:36:25.561Z,1.20
2022-09-29T02:39:36.333Z,1.40
2022-09-29T02:42:46.193Z,1.10
2022-09-29T02:45:46.000Z,1.40
2022-09-29T02:48:41.832Z,1.30
2022-09-29T02:51:35.137Z,1.10
2022-09-29T02:54:27.331Z,1.30
2022-09-29T02:57:15.413Z,1.17
2022-09-29T03:00:09.894Z,1.70
2022-09-29T03:02:57.301Z,1.20
2022-09-29T03:05:45.196Z,1.10
2022-09-29T03:08:33.221Z,1.50
2022-09-29T03:11:21.073Z,1.13
2022-09-29T03:14:09.925Z,1.13
2022-09-29T03:16:57.589Z,1.30
2022-09-29T03:19:45.339Z,0.93
2022-09-29T03:22:33.222Z,1.23
2022-09-29T03:25:20.497Z,1.10
2022-09-29T03:28:08.456Z,1.00
2022-09-29T03:30:55.715Z,1.40
2022-09-29T03:33:44.097Z,1.40
2022-09-29T03:36:31.304Z,1.20
2022-09-29T03:39:19.033Z,0.90
2022-09-29T03:42:06.812Z,1.33
2022-09-29T03:44:55.005Z,1.30
2022-09-29T03:47:42.720Z,1.33
2022-09-29T03:50:29.958Z,1.10
2022-09-29T03:53:18.000Z,1.20
2022-09-29T03:56:06.108Z,1.10
2022-09-29T03:58:53.403Z,1.30
2022-09-29T04:01:41.492Z,1.23
2022-09-29T04:04:28.765Z,1.03
2022-09-29T04:07:16.600Z,1.10
2022-09-29T04:10:04.891Z,1.00
2022-09-29T04:12:52.537Z,1.17
2022-09-29T04:15:39.973Z,0.87
2022-09-29T04:18:27.757Z,0.90
2022-09-29T04:21:17.127Z,0.80
2022-09-29T04:24:05.089Z,0.80
2022-09-29T04:26:52.972Z,1.10
2022-09-29T04:29:40.517Z,0.87
2022-09-29T04:32:27.816Z,1.43
2022-09-29T04:35:15.203Z,0.90
2022-09-29T04:38:02.884Z,1.00
2022-09-29T04:40:50.538Z,1.13
2022-09-29T04:43:38.346Z,0.93
2022-09-29T04:46:26.087Z,0.97
2022-09-29T04:49:13.434Z,0.80
2022-09-29T04:52:03.999Z,1.00
2022-09-29T04:54:51.257Z,0.90
2022-09-29T04:57:39.713Z,0.97
2022-09-29T05:00:27.061Z,0.80
2022-09-29T05:03:14.742Z,0.83
2022-09-29T05:06:02.808Z,1.07
2022-09-29T05:08:50.532Z,1.37
2022-09-29T05:11:38.392Z,1.20
2022-09-29T05:14:25.812Z,1.70
2022-09-29T05:17:13.537Z,1.10
2022-09-29T05:20:00.997Z,1.20
2022-09-29T05:22:48.765Z,1.53
2022-09-29T05:25:36.546Z,1.20
2022-09-29T05:28:24.237Z,1.27
2022-09-29T05:31:11.983Z,1.30
2022-09-29T05:33:59.634Z,1.43
2022-09-29T05:36:47.308Z,1.40
2022-09-29T05:39:34.723Z,1.80
2022-09-29T05:42:22.638Z,1.40
2022-09-29T05:45:10.860Z,1.60
2022-09-29T05:47:58.608Z,1.70
2022-09-29T05:50:46.017Z,2.10
2022-09-29T05:53:33.873Z,3.10
2022-09-29T05:56:23.301Z,1.83
2022-09-29T05:59:11.577Z,1.60
2022-09-29T06:01:58.953Z,2.23
2022-09-29T06:04:46.341Z,1.67
2022-09-29T06:07:33.684Z,2.10
2022-09-29T06:10:21.312Z,2.33
2022-09-29T06:13:08.867Z,2.20
2022-09-29T06:15:56.599Z,2.63
2022-09-29T06:18:44.204Z,2.33
2022-09-29T06:21:32.621Z,2.40
2022-09-29T06:24:19.971Z,2.10
2022-09-29T06:27:07.289Z,2.40
2022-09-29T06:29:54.559Z,1.80
2022-09-29T06:32:42.341Z,1.70
2022-09-29T06:35:48.270Z,1.80
2022-09-29T06:38:36.911Z,1.57
2022-09-29T06:41:24.324Z,1.43
2022-09-29T06:44:12.169Z,1.87
2022-09-29T06:46:59.647Z,1.30
2022-09-29T06:49:52.808Z,1.80
2022-09-29T06:53:02.666Z,1.70
2022-09-29T06:55:56.936Z,1.30
2022-09-29T06:58:45.101Z,1.50
2022-09-29T07:01:32.694Z,1.30
2022-09-29T07:04:21.148Z,1.30
2022-09-29T07:07:08.824Z,1.50
2022-09-29T07:09:56.887Z,1.33
2022-09-29T07:12:46.961Z,1.30
2022-09-29T07:15:34.786Z,1.67
2022-09-29T07:18:32.657Z,1.50
2022-09-29T07:21:59.250Z,1.53
2022-09-29T07:25:51.212Z,1.50
2022-09-29T07:29:28.075Z,1.60
2022-09-29T07:35:45.990Z,1.80
2022-09-29T07:38:34.089Z,2.37
2022-09-29T07:41:24.495Z,2.30
2022-09-29T07:44:20.349Z,2.10
2022-09-29T07:47:14.412Z,1.93
2022-09-29T07:52:41.149Z,2.00
2022-09-29T07:55:34.145Z,1.90
2022-09-29T07:58:28.902Z,2.50
2022-09-29T08:01:26.185Z,1.90
2022-09-29T08:04:14.344Z,1.80
2022-09-29T08:07:01.872Z,1.77
2022-09-29T08:10:12.464Z,1.47
2022-09-29T08:13:45.970Z,1.60
2022-09-29T08:16:35.107Z,1.33
2022-09-29T08:19:22.616Z,1.33
2022-09-29T08:22:11.163Z,1.33
2022-09-29T08:25:00.864Z,1.70
2022-09-29T08:27:55.601Z,1.40
2022-09-29T08:30:44.198Z,1.30
2022-09-29T08:33:35.293Z,1.23
2022-09-29T08:36:33.628Z,1.20
2022-09-29T08:39:45.192Z,1.60
2022-09-29T08:42:59.405Z,1.43
2022-09-29T08:46:03.651Z,1.40
2022-09-29T08:49:06.429Z,1.20
2022-09-29T08:52:16.446Z,1.40
2022-09-29T08:55:21.021Z,1.23
2022-09-29T08:58:14.375Z,1.00
2022-09-29T09:01:05.470Z,1.00
2022-09-29T09:04:12.015Z,1.10
2022-09-29T09:07:11.874Z,0.70
2022-09-29T09:10:08.777Z,0.93
2022-09-29T09:13:19.519Z,0.90
2022-09-29T09:16:09.859Z,0.83
2022-09-29T09:19:16.239Z,1.20
2022-09-29T09:22:25.577Z,1.23
2022-09-29T09:25:42.841Z,1.33
2022-09-29T09:28:30.122Z,1.33
2022-09-29T09:31:17.968Z,1.20
2022-09-29T09:34:06.655Z,1.20
2022-09-29T09:37:15.241Z,1.27
2022-09-29T09:40:12.604Z,1.10
2022-09-29T09:43:11.182Z,1.20
2022-09-29T09:46:01.739Z,1.00
2022-09-29T09:48:52.166Z,1.00
2022-09-29T09:54:38.381Z,0.63
2022-09-29T09:57:44.871Z,0.90
2022-09-29T10:00:50.495Z,0.70
2022-09-29T10:03:38.462Z,0.77
2022-09-29T10:06:26.641Z,0.90
2022-09-29T10:09:15.406Z,0.80
2022-09-29T10:12:04.354Z,0.97
2022-09-29T10:15:21.550Z,0.80
2022-09-29T10:18:14.786Z,1.30
2022-09-29T10:21:02.779Z,0.80
2022-09-29T10:23:54.115Z,1.10
2022-09-29T10:26:43.949Z,1.13
2022-09-29T10:29:38.045Z,0.70
2022-09-29T10:32:36.587Z,1.10
2022-09-29T10:35:25.731Z,0.90
2022-09-29T10:38:25.167Z,1.30
2022-09-29T10:41:12.541Z,1.13
2022-09-29T10:44:19.346Z,0.90
2022-09-29T10:47:09.528Z,1.00
2022-09-29T10:50:18.091Z,1.70
2022-09-29T10:53:08.993Z,1.53
2022-09-29T10:56:00.967Z,1.03
2022-09-29T10:59:14.880Z,1.00
2022-09-29T11:02:02.829Z,0.90
2022-09-29T11:04:51.288Z,1.20
2022-09-29T11:07:44.454Z,1.00
2022-09-29T11:10:31.788Z,1.00
2022-09-29T11:13:25.094Z,0.90
2022-09-29T11:16:39.062Z,0.90
2022-09-29T11:19:27.407Z,0.97
2022-09-29T11:22:37.980Z,1.00
2022-09-29T11:25:44.189Z,0.97
2022-09-29T11:28:51.708Z,0.93
2022-09-29T11:31:43.877Z,1.00
2022-09-29T11:34:31.117Z,1.10
2022-09-29T11:37:24.742Z,1.00
2022-09-29T11:40:16.123Z,1.10
2022-09-29T11:43:22.759Z,1.10
2022-09-29T11:46:22.661Z,0.97
2022-09-29T11:49:25.804Z,2.10
2022-09-29T11:52:16.214Z,1.17
2022-09-29T11:55:03.658Z,1.00
2022-09-29T11:57:54.528Z,1.27
2022-09-29T12:00:45.334Z,1.00
2022-09-29T12:03:37.429Z,1.40
2022-09-29T12:06:33.977Z,1.00
2022-09-29T12:09:40.772Z,1.20
2022-09-29T12:12:28.322Z,1.00
2022-09-29T12:15:26.909Z,1.40
2022-09-29T12:18:19.388Z,1.40
2022-09-29T12:21:08.402Z,1.33
2022-09-29T12:23:58.061Z,1.27
2022-09-29T12:26:48.725Z,1.30
2022-09-29T12:29:40.801Z,1.50
2022-09-29T12:32:44.015Z,1.43
2022-09-29T12:35:31.391Z,1.35
2022-09-29T12:38:21.997Z,1.23
2022-09-29T12:41:16.242Z,1.60
2022-09-29T12:44:04.125Z,1.43
2022-09-29T12:47:00.672Z,1.33
2022-09-29T12:49:54.110Z,1.45
2022-09-29T12:52:51.531Z,1.90
2022-09-29T12:55:46.252Z,1.50
2022-09-29T12:58:41.931Z,1.40
2022-09-29T13:01:31.234Z,1.37
2022-09-29T13:04:39.678Z,1.20
2022-09-29T13:07:32.990Z,1.30
2022-09-29T13:10:29.146Z,1.43
2022-09-29T13:13:36.000Z,1.47
2022-09-29T13:16:40.273Z,1.23
2022-09-29T13:19:57.224Z,1.60
2022-09-29T13:22:51.832Z,1.73
2022-09-29T13:26:03.025Z,1.70
2022-09-29T13:28:52.170Z,1.57
2022-09-29T13:34:34.395Z,1.30
2022-09-29T13:37:23.421Z,1.45
2022-09-29T13:40:17.870Z,1.60
2022-09-29T13:43:05.549Z,2.03
2022-09-29T13:45:53.431Z,1.83
2022-09-29T13:48:48.131Z,1.73
2022-09-29T13:51:49.982Z,1.70
2022-09-29T13:54:44.019Z,1.67
2022-09-29T13:57:31.337Z,2.00
2022-09-29T14:00:20.051Z,2.10
2022-09-29T14:03:20.037Z,1.93
2022-09-29T14:06:29.220Z,1.60
2022-09-29T14:09:19.904Z,1.70
2022-09-29T14:12:17.408Z,1.70
2022-09-29T14:15:05.044Z,1.80
2022-09-29T14:17:58.705Z,1.57
2022-09-29T14:21:04.496Z,1.67
2022-09-29T14:23:58.499Z,1.80
2022-09-29T14:26:47.714Z,2.03
2022-09-29T14:29:41.635Z,2.17
2022-09-29T14:32:43.593Z,2.70
2022-09-29T14:35:35.923Z,2.80
2022-09-29T14:38:35.606Z,2.77
2022-09-29T14:41:46.661Z,3.07
2022-09-29T14:45:13.171Z,3.27
2022-09-29T14:48:28.974Z,3.67
2022-09-29T14:51:55.558Z,3.13
2022-09-29T14:55:01.348Z,2.90
2022-09-29T14:58:08.848Z,3.47
2022-09-29T15:01:09.382Z,3.13
2022-09-29T15:04:22.637Z,2.53
2022-09-29T15:07:42.584Z,2.60
2022-09-29T15:10:44.523Z,2.53
2022-09-29T15:13:57.563Z,2.50
2022-09-29T15:16:48.407Z,2.10
2022-09-29T15:19:55.485Z,2.00
2022-09-29T15:23:00.451Z,2.10
2022-09-29T15:25:48.179Z,2.30
2022-09-29T15:28:43.362Z,2.20
2022-09-29T15:31:34.553Z,2.47
2022-09-29T15:34:23.146Z,2.20
2022-09-29T15:37:15.500Z,2.07
2022-09-29T15:40:03.913Z,2.37
2022-09-29T15:42:56.049Z,2.73
2022-09-29T15:45:53.662Z,2.90
2022-09-29T15:48:41.547Z,3.70
2022-09-29T15:51:29.711Z,3.87
2022-09-29T15:54:17.458Z,4.10
2022-09-29T15:57:25.213Z,4.70
2022-09-29T16:00:21.906Z,4.37
2022-09-29T16:03:12.759Z,5.03
2022-09-29T16:06:05.919Z,5.53
2022-09-29T16:08:56.320Z,5.37
2022-09-29T16:11:43.685Z,5.83
2022-09-29T16:14:31.124Z,6.33
2022-09-29T16:17:19.379Z,5.80
2022-09-29T16:20:06.916Z,6.03
2022-09-29T16:22:56.274Z,7.00
2022-09-29T16:25:45.286Z,6.67
2022-09-29T16:28:34.201Z,6.40
2022-09-29T16:31:24.313Z,6.67
2022-09-29T16:34:24.410Z,8.00
2022-09-29T16:37:20.511Z,7.50
2022-09-29T16:40:19.293Z,7.50
2022-09-29T16:43:07.101Z,7.70
2022-09-29T16:45:56.997Z,7.33
2022-09-29T16:48:45.951Z,7.37
2022-09-29T16:51:40.669Z,7.60
2022-09-29T16:54:40.153Z,7.13
2022-09-29T16:57:34.941Z,7.80
2022-09-29T17:00:22.684Z,7.80
2022-09-29T17:03:10.877Z,7.30
2022-09-29T17:05:59.763Z,7.70
2022-09-29T17:08:50.356Z,8.00
2022-09-29T17:11:40.498Z,7.27
2022-09-29T17:14:32.573Z,7.90
2022-09-29T17:17:23.174Z,7.93
2022-09-29T17:20:18.139Z,8.50
2022-09-29T17:23:09.312Z,8.43
2022-09-29T17:26:16.651Z,7.80
2022-09-29T17:29:04.684Z,7.63
2022-09-29T17:31:52.836Z,8.30
2022-09-29T17:34:40.333Z,8.27
2022-09-29T17:37:28.171Z,9.03
2022-09-29T17:40:19.024Z,7.73
2022-09-29T17:43:06.966Z,6.63
2022-09-29T17:45:57.626Z,7.17
2022-09-29T17:48:45.034Z,7.43
2022-09-29T17:51:32.349Z,8.77
2022-09-29T17:54:28.198Z,7.97
2022-09-29T17:57:25.710Z,8.77
2022-09-29T18:00:21.700Z,7.67
2022-09-29T18:03:12.899Z,7.73
2022-09-29T18:06:00.681Z,8.10
2022-09-29T18:08:53.702Z,7.03
2022-09-29T18:11:41.905Z,8.13
2022-09-29T18:14:30.745Z,7.70
2022-09-29T18:17:18.433Z,8.10
2022-09-29T18:20:16.717Z,7.93
2022-09-29T18:23:04.199Z,7.37
2022-09-29T18:25:52.367Z,7.33
2022-09-29T18:28:40.014Z,6.20
2022-09-29T18:31:29.468Z,6.60
2022-09-29T18:34:18.671Z,7.40
2022-09-29T18:37:07.449Z,7.50
2022-09-29T18:39:55.105Z,7.83
2022-09-29T18:42:46.902Z,8.27
2022-09-29T18:45:38.553Z,8.03
2022-09-29T18:48:25.997Z,8.87
2022-09-29T18:51:13.930Z,8.93
2022-09-29T18:54:02.602Z,9.10
2022-09-29T18:56:53.866Z,9.03
2022-09-29T18:59:42.768Z,9.13
2022-09-29T19:02:30.131Z,9.00
2022-09-29T19:05:20.983Z,9.60
2022-09-29T19:08:08.691Z,8.70
2022-09-29T19:11:00.643Z,9.37
2022-09-29T19:13:51.978Z,10.63
2022-09-29T19:16:39.217Z,10.63
2022-09-29T19:19:26.897Z,10.27
2022-09-29T19:22:14.290Z,11.30
2022-09-29T19:25:02.397Z,12.03
2022-09-29T19:27:50.016Z,11.90
2022-09-29T19:30:38.945Z,10.73
2022-09-29T19:33:26.401Z,11.37
2022-09-29T19:36:16.975Z,10.93
2022-09-29T19:39:04.567Z,10.83
2022-09-29T19:41:52.033Z,11.30
2022-09-29T19:44:39.916Z,11.37
2022-09-29T19:47:27.784Z,11.30
2022-09-29T19:50:34.139Z,10.50
2022-09-29T19:53:22.062Z,11.40
2022-09-29T19:56:11.021Z,10.60
2022-09-29T19:58:58.463Z,10.67
2022-09-29T20:01:49.528Z,10.57
2022-09-29T20:04:37.233Z,11.40
2022-09-29T20:07:25.184Z,11.87
2022-09-29T20:10:14.489Z,11.13
2022-09-29T20:13:03.409Z,12.40
2022-09-29T20:15:51.822Z,10.80
2022-09-29T20:18:39.563Z,10.87
2022-09-29T20:21:27.083Z,11.47
2022-09-29T20:24:16.300Z,11.00
2022-09-29T20:27:04.322Z,11.57
2022-09-29T20:29:52.239Z,11.10
2022-09-29T20:32:40.188Z,10.10
2022-09-29T20:35:27.969Z,10.90
2022-09-29T20:38:15.441Z,10.17
2022-09-29T20:41:03.482Z,12.07
2022-09-29T20:43:56.050Z,11.50
2022-09-29T20:46:44.349Z,11.40
2022-09-29T20:49:32.352Z,10.40
2022-09-29T20:52:19.749Z,11.30
2022-09-29T20:55:07.848Z,11.10
2022-09-29T20:58:00.391Z,11.07
2022-09-29T21:00:47.889Z,10.23
2022-09-29T21:03:35.440Z,10.23
2022-09-29T21:06:24.333Z,10.70
2022-09-29T21:09:12.903Z,10.90
2022-09-29T21:12:00.215Z,9.73
2022-09-29T21:14:47.767Z,9.67
2022-09-29T21:17:35.660Z,10.40
2022-09-29T21:20:23.413Z,9.30
2022-09-29T21:23:13.768Z,9.37
2022-09-29T21:26:02.799Z,10.23
2022-09-29T21:28:58.134Z,10.40
2022-09-29T21:31:46.097Z,9.87
2022-09-29T21:34:33.961Z,10.60
2022-09-29T21:37:21.934Z,10.40
2022-09-29T21:40:09.970Z,10.27
2022-09-29T21:42:57.420Z,9.80
2022-09-29T21:45:45.309Z,9.97
2022-09-29T21:48:34.623Z,10.63
2022-09-29T21:51:24.520Z,10.83
2022-09-29T21:54:13.839Z,11.13
2022-09-29T21:57:01.768Z,10.13
2022-09-29T21:59:49.241Z,10.20
2022-09-29T22:02:37.296Z,9.10
2022-09-29T22:05:24.866Z,9.50
2022-09-29T22:08:12.731Z,9.17
2022-09-29T22:11:00.896Z,9.47
2022-09-29T22:13:52.719Z,10.30
2022-09-29T22:16:40.508Z,12.57
2022-09-29T22:19:29.543Z,12.17
2022-09-29T22:22:17.252Z,12.00
2022-09-29T22:25:04.991Z,15.40
2022-09-29T22:27:52.595Z,14.53
2022-09-29T22:30:41.030Z,12.23
2022-09-29T22:33:29.308Z,11.80
2022-09-29T22:36:16.833Z,10.77
2022-09-29T22:39:06.044Z,9.17
2022-09-29T22:41:54.049Z,9.97
2022-09-29T22:44:41.508Z,9.77
2022-09-29T22:47:29.456Z,9.73
2022-09-29T22:50:17.485Z,10.57
2022-09-29T22:53:05.947Z,11.83
2022-09-29T22:55:53.385Z,12.43
2022-09-29T22:58:42.351Z,10.10
2022-09-29T23:01:30.029Z,11.10
2022-09-29T23:04:18.005Z,10.53
2022-09-29T23:07:07.338Z,10.27
2022-09-29T23:09:55.263Z,9.77
2022-09-29T23:12:43.574Z,10.87
2022-09-29T23:15:31.050Z,10.37
2022-09-29T23:18:19.216Z,10.43
2022-09-29T23:21:07.069Z,11.23
2022-09-29T23:23:56.471Z,10.37
2022-09-29T23:26:47.629Z,10.70
2022-09-29T23:29:34.955Z,10.57
2022-09-29T23:32:22.271Z,11.20
2022-09-29T23:35:11.131Z,10.77
2022-09-29T23:38:17.765Z,11.43
2022-09-29T23:41:05.314Z,10.83
2022-09-29T23:43:53.136Z,11.57
2022-09-29T23:46:40.893Z,11.33
2022-09-29T23:49:29.205Z,10.43
2022-09-29T23:52:16.492Z,10.97
2022-09-29T23:55:04.506Z,11.40
2022-09-29T23:57:52.227Z,11.43
